Lander, WY (82520)

1:19 PM MST on December 09, 2016 (GMT -0700)
| | Change Station

Elev -9999 ft 0.00 °N, 0.00 °E | Updated

Partly Cloudy
Partly Cloudy
49 °F
Feels Like 49 °F
N
4
Wind Variable Wind from WSW
Gusts mph

Today
High -- | Low -- °F
--% Chance of Precip.
Yesterday
High -- | Low -- °F
Precip. -- in
Pressure 30.30 in
Visibility 10.0 miles
Clouds Clear
Dew Point 36 °F
Humidity 60%
Rainfall --
Snow Depth Not available.
7:34 AM 4:40 PM
Waxing Gibbous, 77% visible
METAR KLND 091953Z AUTO 14003KT 10SM CLR M09/M16 A3005 RMK AO2 SLP260 T10891156
Pressure 30.30 in
Visibility 10.0 miles
Clouds Clear
Dew Point 36 °F
Humidity 60%
Rainfall --
Snow Depth Not available.
7:34 AM 4:40 PM
Waxing Gibbous, 77% visible
METAR KLND 091953Z AUTO 14003KT 10SM CLR M09/M16 A3005 RMK AO2 SLP260 T10891156

10-Day Weather Forecast

Almanac

Astronomy

Dec. 09, 2016 Rise Set
Actual Time
Civil Twilight
Nautical Twilight
Astronomical Twilight
Moon
Length of Visible Light
Length of Day
Tomorrow will be .
, % of the Moon is Illuminated

Today's Extremes

State Highs State Lows

Community

WunderPhotos

Upload Photos

1,956,517 photos uploaded!

WunderBlog® & News

Nearby

Air Quality

  Air Quality AQ Index Pollutant
Not available.

Snow Depth

Station Depth Elevation

Earthquake Activity

City Distance Mag. Time & Date
Minimum magnitude displayed is 2.5.

Coastal Water Temperatures

Place Temperature

Stations

Nearby Weather Stations

Station Location Temp. Windchill Dew Point Humidity Wind Precip. Elev Updated Type
                   

Watches & Warnings

There are currently no watches in effect.